Time;durP1;ratioP1;P1;durP2;ratioP2;P2;SDS_P1;SDS_P2;PMS_P1;PMS_P2;Temp;Humidity;BMP_temperature;BMP_pressure;BME280_temperature;BME280_humidity;BME280_pressure;Samples;Min_cycle;Max_cycle;Signal;HPM_P1;HPM_P2
2024/02/03 00:00:34;;;;;;;7.20;6.33;;;7.70;80.50;;;7.03;78.98;98979.88;5061855;28;20508;-70
2024/02/03 00:03:02;;;;;;;6.90;6.20;;;7.60;80.60;;;6.97;79.06;98987.78;5065025;28;20453;-74
2024/02/03 00:05:29;;;;;;;7.87;6.97;;;7.60;80.90;;;7.00;79.44;98984.78;5063768;28;20460;-73
2024/02/03 00:07:58;;;;;;;8.90;6.37;;;7.60;81.10;;;7.02;79.69;98991.63;5059805;28;20464;-71
2024/02/03 00:10:25;;;;;;;9.30;7.17;;;7.60;81.40;;;6.95;79.74;98979.91;5073821;28;20452;-73
2024/02/03 00:12:53;;;;;;;6.57;5.90;;;7.60;81.40;;;6.93;79.79;98982.75;5078696;28;20461;-72
2024/02/03 00:15:24;;;;;;;11.97;6.87;;;7.50;81.40;;;6.97;80.04;98974.34;5074292;28;20449;-74
2024/02/03 00:17:51;;;;;;;6.87;5.87;;;7.60;81.60;;;6.91;80.29;98976.69;5063279;28;20479;-75
2024/02/03 00:20:19;;;;;;;7.23;6.43;;;7.60;81.60;;;6.48;80.79;98909.72;5062074;28;20456;-71
2024/02/03 00:22:51;;;;;;;7.27;6.57;;;7.50;81.90;;;6.86;80.94;98973.69;5062875;28;20457;-73
2024/02/03 00:25:20;;;;;;;7.70;6.90;;;7.50;82.10;;;6.88;80.56;98960.94;5065134;28;20444;-73
2024/02/03 00:27:48;;;;;;;7.90;6.80;;;7.50;82.20;;;6.89;80.75;98972.50;5066615;28;20993;-74
2024/02/03 00:30:15;;;;;;;7.67;6.37;;;7.50;82.20;;;6.92;81.20;98967.63;5077882;28;20454;-73
2024/02/03 00:32:42;;;;;;;9.20;7.13;;;7.50;82.40;;;6.78;81.65;98971.00;5065795;28;20480;-73
2024/02/03 00:35:09;;;;;;;10.53;7.00;;;7.50;82.30;;;6.91;81.50;98965.13;5064077;28;20457;-73
2024/02/03 00:37:37;;;;;;;8.07;6.47;;;7.50;82.40;;;6.50;81.54;98913.09;5067003;28;22051;-72
2024/02/03 00:40:06;;;;;;;7.80;6.17;;;7.50;82.70;;;6.89;81.11;98967.13;5061207;28;20450;-71
2024/02/03 00:42:34;;;;;;;8.90;6.67;;;7.50;82.80;;;6.83;81.64;98978.56;5067495;28;20455;-73
2024/02/03 00:45:02;;;;;;;7.87;6.60;;;7.50;82.80;;;6.86;82.21;98972.84;5063831;28;20456;-74
2024/02/03 00:47:29;;;;;;;7.97;6.53;;;7.50;83.00;;;6.79;82.09;98967.28;5064151;28;20488;-72
2024/02/03 00:49:56;;;;;;;9.53;7.00;;;7.50;83.10;;;6.83;81.94;98959.75;5059732;28;20463;-71
2024/02/03 00:52:25;;;;;;;10.93;6.00;;;7.50;83.30;;;6.55;82.38;98925.16;5075293;28;20468;-73
2024/02/03 00:54:52;;;;;;;7.03;6.33;;;7.50;83.30;;;6.77;82.78;98967.47;5064457;28;20454;-73
2024/02/03 00:57:19;;;;;;;7.83;6.73;;;7.50;83.40;;;6.90;82.90;98964.28;5068671;28;21810;-73
2024/02/03 00:59:48;;;;;;;11.90;7.70;;;7.50;83.60;;;6.86;82.57;98959.41;5068150;28;20462;-74
2024/02/03 01:02:15;;;;;;;8.80;7.90;;;7.50;83.70;;;6.69;83.37;98959.41;5063529;28;20977;-73
2024/02/03 01:04:43;;;;;;;7.90;7.10;;;7.50;83.70;;;6.94;83.01;98965.63;5081929;28;20545;-75
2024/02/03 01:07:10;;;;;;;7.33;6.17;;;7.50;83.90;;;6.86;83.50;98957.56;5068557;28;20464;-72
2024/02/03 01:09:37;;;;;;;7.77;6.40;;;7.40;84.00;;;6.94;82.96;98954.03;5063199;28;20486;-74
2024/02/03 01:12:06;;;;;;;9.13;7.30;;;7.50;84.00;;;6.79;83.95;98949.34;5067121;28;20565;-71
2024/02/03 01:14:36;;;;;;;8.17;7.20;;;7.50;84.20;;;6.83;83.78;98952.53;5066096;28;20470;-74
2024/02/03 01:17:05;;;;;;;9.30;8.20;;;7.50;84.60;;;6.74;83.90;98970.47;5056007;28;20449;-73
2024/02/03 01:19:33;;;;;;;9.83;8.13;;;7.40;84.70;;;6.74;84.35;98969.66;5066215;28;20554;-75
2024/02/03 01:22:00;;;;;;;7.73;6.80;;;7.40;84.80;;;6.78;84.08;98966.47;5059038;28;20461;-73
2024/02/03 01:24:27;;;;;;;9.93;7.50;;;7.40;84.90;;;6.87;84.44;98969.13;5074855;28;20452;-74
2024/02/03 01:26:55;;;;;;;7.90;7.10;;;7.40;85.30;;;6.89;84.29;98967.97;5067108;28;20469;-74
2024/02/03 01:29:22;;;;;;;9.07;7.83;;;7.40;85.10;;;6.84;84.13;98964.97;5063375;28;20456;-73
2024/02/03 01:31:49;;;;;;;9.87;7.47;;;7.50;85.20;;;6.75;84.73;98966.81;5066645;28;20474;-74
2024/02/03 01:34:18;;;;;;;8.97;7.20;;;7.50;85.20;;;6.87;84.47;98969.13;5069797;28;20503;-74
2024/02/03 01:36:46;;;;;;;9.10;7.57;;;7.50;85.30;;;6.97;83.91;98964.44;5086706;28;20577;-74
2024/02/03 01:39:14;;;;;;;8.30;7.40;;;7.50;85.20;;;6.77;85.44;98970.16;5083058;28;20476;-74
2024/02/03 01:41:41;;;;;;;9.23;8.27;;;7.40;85.50;;;6.92;84.86;98967.63;5066150;28;20507;-73
2024/02/03 01:44:08;;;;;;;8.27;7.47;;;7.40;85.80;;;6.94;84.65;98965.63;5065882;28;20466;-73
2024/02/03 01:46:36;;;;;;;10.60;8.23;;;7.50;85.60;;;6.99;84.53;98975.03;5062548;28;20450;-71
2024/02/03 01:49:04;;;;;;;8.70;7.33;;;7.50;85.80;;;6.96;84.67;98970.81;5072461;28;20457;-72
2024/02/03 01:51:33;;;;;;;7.93;7.13;;;7.50;85.90;;;6.93;84.77;98980.06;5061625;28;20483;-71
2024/02/03 01:54:02;;;;;;;9.53;7.73;;;7.50;85.70;;;6.92;85.05;98980.25;5059002;28;20463;-73
2024/02/03 01:56:33;;;;;;;9.70;7.67;;;7.50;86.00;;;7.03;84.64;98976.38;5063977;28;21030;-73
2024/02/03 01:59:01;;;;;;;8.93;7.10;;;7.50;86.20;;;6.97;84.51;98985.94;5064152;28;20494;-73
2024/02/03 02:01:29;;;;;;;9.17;8.17;;;7.60;85.90;;;6.93;85.37;98979.22;5069930;28;20452;-72
2024/02/03 02:03:56;;;;;;;8.50;7.13;;;7.50;86.10;;;7.02;84.71;98983.56;5066750;28;20450;-71
2024/02/03 02:06:24;;;;;;;8.53;7.60;;;7.50;86.30;;;6.87;85.15;98985.25;5065002;28;20454;-73
2024/02/03 02:08:52;;;;;;;8.47;7.13;;;7.50;86.30;;;6.87;85.53;98996.00;5062603;28;20475;-74
2024/02/03 02:11:24;;;;;;;10.00;7.50;;;7.50;86.40;;;6.71;86.58;98986.94;5068828;28;20447;-73
2024/02/03 02:13:51;;;;;;;8.40;7.60;;;7.40;86.60;;;6.82;86.33;98988.44;5065669;28;20453;-73
2024/02/03 02:16:19;;;;;;;9.53;7.80;;;7.40;87.20;;;6.89;85.79;98981.41;5062594;28;20471;-73
2024/02/03 02:18:47;;;;;;;10.90;7.97;;;7.50;87.10;;;6.97;85.87;98988.63;5067508;28;20457;-74
2024/02/03 02:21:15;;;;;;;9.37;7.90;;;7.50;87.00;;;7.08;85.44;98980.22;5084838;28;20976;-74
2024/02/03 02:23:43;;;;;;;7.80;6.97;;;7.50;87.00;;;7.07;84.90;98981.25;5082924;28;20955;-73
2024/02/03 02:26:10;;;;;;;8.50;7.70;;;7.60;86.80;;;7.11;85.49;98972.84;5081700;28;20882;-74
2024/02/03 02:28:39;;;;;;;9.00;7.43;;;7.50;86.90;;;6.84;86.50;98977.53;5064750;28;20457;-74
2024/02/03 02:31:07;;;;;;;8.53;7.50;;;7.50;86.70;;;6.89;86.58;98976.03;5067159;28;20544;-73
2024/02/03 02:33:34;;;;;;;10.70;8.40;;;7.50;87.30;;;6.96;85.78;98968.16;5068263;28;20972;-72
2024/02/03 02:36:02;;;;;;;9.90;7.87;;;7.50;87.00;;;6.90;86.29;98971.47;5067854;28;20476;-71
2024/02/03 02:38:31;;;;;;;9.50;8.60;;;7.50;87.10;;;6.84;86.88;98970.34;5065127;28;20461;-73
2024/02/03 02:40:58;;;;;;;8.97;7.80;;;7.50;87.60;;;6.95;86.24;98955.72;5065191;28;20465;-72
2024/02/03 02:43:26;;;;;;;8.70;7.80;;;7.50;87.50;;;7.07;85.55;98975.88;5082356;28;20456;-73
2024/02/03 02:45:54;;;;;;;9.30;7.80;;;7.50;87.30;;;6.94;85.79;98970.16;5067882;28;20459;-72
2024/02/03 02:48:22;;;;;;;8.87;7.97;;;7.50;87.30;;;6.85;86.44;98955.03;5064819;28;20503;-73
2024/02/03 02:50:50;;;;;;;8.60;7.70;;;7.50;87.20;;;6.87;86.75;98950.34;5066568;28;20501;-71
2024/02/03 02:53:17;;;;;;;9.00;8.10;;;7.50;87.30;;;6.86;86.26;98945.97;5071547;28;20504;-73
2024/02/03 02:55:46;;;;;;;9.90;8.27;;;7.50;87.20;;;6.96;86.35;98946.66;5065038;28;20445;-73
2024/02/03 02:58:13;;;;;;;9.40;8.40;;;7.50;87.60;;;6.81;86.90;98943.78;5064397;28;20472;-72
2024/02/03 03:00:41;;;;;;;9.23;7.73;;;7.50;87.50;;;6.87;86.58;98936.91;5063742;28;20933;-73
2024/02/03 03:03:08;;;;;;;10.63;8.60;;;7.50;87.50;;;6.88;86.71;98938.56;5067163;28;20453;-72
2024/02/03 03:05:35;;;;;;;10.80;7.87;;;7.50;87.40;;;6.77;87.12;98937.09;5067543;28;20468;-74
2024/02/03 03:08:04;;;;;;;9.37;7.77;;;7.50;87.30;;;6.75;87.55;98956.06;5062939;28;20454;-73
2024/02/03 03:10:31;;;;;;;9.20;8.00;;;7.40;87.60;;;6.41;86.68;98889.09;5065536;28;20449;-75
2024/02/03 03:13:00;;;;;;;9.87;8.63;;;7.50;87.70;;;6.91;86.67;98949.00;5054733;28;21083;-71
2024/02/03 03:15:27;;;;;;;11.90;9.03;;;7.40;88.00;;;6.75;87.35;98953.38;5059678;28;21206;-73
2024/02/03 03:17:54;;;;;;;9.13;7.80;;;7.40;88.10;;;6.73;87.39;98952.69;5064125;28;20461;-71
2024/02/03 03:20:22;;;;;;;10.57;8.13;;;7.40;88.00;;;6.74;87.85;98957.03;5066057;28;20455;-71
2024/02/03 03:22:49;;;;;;;10.70;8.27;;;7.40;88.40;;;6.69;87.87;98956.72;5067479;28;20452;-74
2024/02/03 03:25:16;;;;;;;11.17;8.50;;;7.40;88.40;;;6.83;87.21;98962.44;5075309;28;20453;-73
2024/02/03 03:27:44;;;;;;;10.80;8.63;;;7.40;88.70;;;6.80;87.53;98966.28;5062977;28;20992;-74
2024/02/03 03:30:13;;;;;;;11.40;9.50;;;7.40;88.50;;;6.41;87.29;98900.66;5063504;28;20450;-74
2024/02/03 03:32:41;;;;;;;8.63;7.80;;;7.40;88.10;;;6.83;87.57;98957.06;5062117;28;20477;-74
2024/02/03 03:35:09;;;;;;;10.53;8.93;;;7.40;88.60;;;6.81;87.30;98965.28;5057146;28;20865;-73
2024/02/03 03:37:36;;;;;;;10.53;9.40;;;7.40;88.40;;;6.76;87.46;98967.63;5052990;28;20505;-75
2024/02/03 03:40:04;;;;;;;12.57;8.80;;;7.40;88.30;;;6.76;87.61;98965.81;5061949;28;21004;-75
2024/02/03 03:42:31;;;;;;;9.93;8.93;;;7.40;88.70;;;6.77;87.81;98970.16;5059683;28;20454;-72
2024/02/03 03:44:58;;;;;;;10.70;8.73;;;7.40;88.80;;;6.83;87.80;98978.56;5064089;28;20445;-72
2024/02/03 03:47:27;;;;;;;10.77;8.33;;;7.40;88.50;;;6.82;87.64;98971.50;5056361;28;20460;-74
2024/02/03 03:49:54;;;;;;;10.40;9.03;;;7.40;88.50;;;6.79;88.01;98978.03;5057035;28;20477;-74
2024/02/03 03:52:21;;;;;;;10.53;8.60;;;7.40;89.10;;;6.75;88.13;98969.50;5066272;28;20489;-72
2024/02/03 03:54:49;;;;;;;9.40;8.17;;;7.40;89.10;;;6.18;88.67;98908.50;5075945;28;20468;-72
2024/02/03 03:57:16;;;;;;;11.03;9.10;;;7.30;89.10;;;6.66;88.81;98975.84;5058977;28;20449;-74
2024/02/03 03:59:43;;;;;;;10.43;9.37;;;7.40;89.40;;;6.65;88.72;98977.69;5062140;28;21342;-74
2024/02/03 04:02:14;;;;;;;12.53;9.33;;;7.40;89.50;;;6.70;89.32;98982.56;5063330;28;20467;-74
2024/02/03 04:04:42;;;;;;;11.00;9.10;;;7.30;89.70;;;6.69;89.07;98978.22;5059662;28;20446;-74
2024/02/03 04:07:09;;;;;;;11.30;8.90;;;7.40;90.00;;;6.80;88.61;98982.41;5066267;28;20453;-73
2024/02/03 04:09:37;;;;;;;12.33;9.27;;;7.40;90.00;;;6.59;90.20;98977.50;5064842;28;20449;-71
2024/02/03 04:12:05;;;;;;;11.10;8.80;;;7.30;90.00;;;6.64;90.05;98981.38;5063668;28;20478;-73
2024/02/03 04:14:32;;;;;;;13.73;10.87;;;7.30;90.10;;;6.67;90.01;98985.59;5063437;28;20557;-73
2024/02/03 04:17:00;;;;;;;11.77;9.90;;;7.30;90.20;;;6.63;90.61;98984.25;5054431;28;20443;-72
2024/02/03 04:19:27;;;;;;;11.20;9.53;;;7.30;90.60;;;6.70;90.66;98985.25;5059627;28;20474;-69
2024/02/03 04:21:55;;;;;;;12.47;10.43;;;7.30;90.70;;;6.65;90.26;98983.06;5061377;28;20457;-72
2024/02/03 04:24:23;;;;;;;11.03;9.70;;;7.30;90.70;;;6.59;90.71;98985.56;5065863;28;20454;-73
2024/02/03 04:26:50;;;;;;;13.07;9.13;;;7.30;90.60;;;6.65;90.97;98987.63;5064868;28;20462;-73
2024/02/03 04:29:18;;;;;;;11.77;9.23;;;7.30;90.80;;;6.58;90.81;98981.22;5061933;28;20471;-73
2024/02/03 04:31:45;;;;;;;13.67;10.13;;;7.30;90.70;;;6.42;92.00;98982.88;5064276;28;20449;-74
2024/02/03 04:34:12;;;;;;;11.97;9.83;;;7.20;90.80;;;6.36;91.42;98978.16;5060353;28;20898;-73
2024/02/03 04:36:40;;;;;;;12.77;9.60;;;7.30;90.80;;;6.59;90.85;98989.13;5066827;28;20508;-73
2024/02/03 04:39:09;;;;;;;11.13;9.33;;;7.30;90.60;;;6.58;90.56;98981.22;5065319;28;20461;-74
2024/02/03 04:41:36;;;;;;;12.27;9.50;;;7.30;90.40;;;6.59;90.37;98981.06;5081409;28;20488;-73
2024/02/03 04:44:04;;;;;;;11.43;10.20;;;7.30;90.50;;;6.66;90.15;98974.00;5062505;28;20459;-73
2024/02/03 04:46:31;;;;;;;12.50;9.87;;;7.30;90.50;;;6.71;89.92;98984.25;5063371;28;21135;-72
2024/02/03 04:48:58;;;;;;;11.87;9.77;;;7.30;90.50;;;6.69;90.66;98972.84;5059695;28;20444;-73
2024/02/03 04:51:26;;;;;;;13.17;10.50;;;7.30;90.70;;;6.63;91.62;98978.88;5067921;28;20454;-71
2024/02/03 04:53:53;;;;;;;11.40;9.93;;;7.30;90.90;;;6.58;92.04;98971.31;5061744;28;20480;-73
2024/02/03 04:56:22;;;;;;;13.83;10.50;;;7.30;91.30;;;6.51;92.77;98976.50;5071156;28;20454;-73
2024/02/03 04:58:49;;;;;;;13.30;10.10;;;7.20;91.60;;;6.55;91.57;98976.19;5055009;28;20464;-73
2024/02/03 05:01:17;;;;;;;13.97;10.23;;;7.20;91.30;;;6.63;91.68;98974.34;5075090;28;20469;-72
2024/02/03 05:03:44;;;;;;;13.27;11.63;;;7.30;91.30;;;6.49;92.08;98962.41;5072775;28;20462;-73
2024/02/03 05:06:11;;;;;;;11.30;9.87;;;7.20;91.10;;;6.55;91.95;98966.28;5064492;28;20448;-74
2024/02/03 05:08:38;;;;;;;12.73;10.20;;;7.20;91.40;;;6.42;92.67;98956.00;5066683;28;20464;-74
2024/02/03 05:11:06;;;;;;;13.13;10.53;;;7.20;91.70;;;6.43;92.53;98957.69;5072586;28;20452;-74
2024/02/03 05:13:35;;;;;;;13.87;11.43;;;7.20;91.50;;;6.42;93.35;98961.38;5063610;28;20472;-74
2024/02/03 05:16:02;;;;;;;14.83;11.00;;;7.10;91.90;;;6.44;93.88;98959.38;5084861;28;20472;-73
2024/02/03 05:18:30;;;;;;;14.40;11.80;;;7.10;92.20;;;6.38;94.58;98970.78;5062680;28;20439;-74
2024/02/03 05:20:57;;;;;;;15.67;10.77;;;7.10;92.20;;;6.21;95.86;98970.75;5068551;28;20453;-72
2024/02/03 05:23:24;;;;;;;15.93;10.63;;;7.00;92.80;;;6.26;95.96;98972.94;5068470;28;20440;-74
2024/02/03 05:25:51;;;;;;;13.87;10.83;;;7.10;92.90;;;6.42;94.97;98971.31;5070218;28;20454;-73
2024/02/03 05:28:19;;;;;;;13.43;10.33;;;7.10;92.80;;;6.44;94.48;98980.84;5084443;28;20466;-73
2024/02/03 05:30:48;;;;;;;12.33;8.77;;;7.10;92.80;;;6.35;93.48;98971.94;5070460;28;20468;-74
2024/02/03 05:33:15;;;;;;;11.13;9.27;;;7.10;91.90;;;6.28;93.03;98980.81;5067577;28;20487;-72
2024/02/03 05:35:42;;;;;;;13.20;9.90;;;7.00;91.50;;;6.34;92.75;98983.69;5064480;28;20458;-73
2024/02/03 05:38:09;;;;;;;12.40;9.13;;;7.10;91.60;;;6.27;92.83;98974.63;5066378;28;20448;-72
2024/02/03 05:40:36;;;;;;;11.60;9.53;;;7.00;91.30;;;6.27;92.20;98979.13;5064896;28;20556;-72
2024/02/03 05:43:04;;;;;;;10.40;8.57;;;7.00;91.10;;;6.29;92.38;98990.53;5062235;28;20941;-74
2024/02/03 05:45:32;;;;;;;10.50;8.70;;;7.00;91.00;;;6.24;92.27;98986.53;5070093;28;20463;-72
2024/02/03 05:48:01;;;;;;;11.63;9.73;;;7.00;91.00;;;6.22;92.40;98987.72;5067985;28;20772;-70
2024/02/03 05:50:28;;;;;;;10.33;9.03;;;7.00;91.20;;;6.22;92.22;98993.06;5084516;28;20522;-73
2024/02/03 05:52:56;;;;;;;11.17;9.13;;;6.90;91.20;;;6.32;91.90;98990.25;5069658;28;20476;-72
2024/02/03 05:55:23;;;;;;;11.00;9.83;;;7.00;91.40;;;6.28;92.36;98999.59;5067050;28;20525;-71
2024/02/03 05:57:52;;;;;;;10.00;8.90;;;6.90;91.20;;;6.33;92.95;98994.59;5084112;28;20456;-73
2024/02/03 06:00:20;;;;;;;12.07;9.80;;;7.00;91.60;;;6.22;93.09;98991.22;5068791;28;20453;-74
2024/02/03 06:02:48;;;;;;;12.03;9.77;;;6.90;91.60;;;6.27;93.22;98997.94;5083521;28;20453;-71
2024/02/03 06:05:17;;;;;;;12.53;10.53;;;6.90;91.80;;;6.13;94.14;99000.22;5060063;28;20529;-74
2024/02/03 06:07:44;;;;;;;12.33;9.80;;;6.90;92.10;;;6.08;94.46;98997.22;5061964;28;20484;-73
2024/02/03 06:10:12;;;;;;;12.57;9.57;;;6.80;92.40;;;6.24;94.31;99001.81;5065059;28;20844;-72
2024/02/03 06:12:39;;;;;;;11.73;9.73;;;6.90;92.70;;;6.14;94.47;98990.34;5071672;28;21050;-72
2024/02/03 06:15:07;;;;;;;10.43;9.27;;;6.90;92.70;;;6.14;94.96;99001.94;5063545;28;20947;-73
2024/02/03 06:17:34;;;;;;;13.80;10.90;;;6.80;92.80;;;6.09;96.01;99006.94;5069729;28;20445;-73
2024/02/03 06:20:01;;;;;;;14.73;12.03;;;6.80;93.40;;;6.20;95.50;98995.91;5073958;28;20808;-74
2024/02/03 06:22:30;;;;;;;14.77;10.47;;;6.80;93.60;;;6.00;96.92;99000.66;5075686;28;20543;-74
2024/02/03 06:24:57;;;;;;;16.43;11.80;;;6.70;93.70;;;5.95;96.54;98993.09;5071954;28;20485;-74
2024/02/03 06:27:25;;;;;;;13.17;11.33;;;6.70;94.30;;;5.98;97.51;99012.56;5061834;28;20893;-73
2024/02/03 06:29:52;;;;;;;15.83;12.10;;;6.70;94.40;;;6.17;96.89;99000.75;5065653;28;21121;-73
2024/02/03 06:32:19;;;;;;;15.07;11.20;;;6.80;94.80;;;6.15;97.77;99002.75;5063211;28;20443;-74
2024/02/03 06:34:46;;;;;;;14.83;11.67;;;6.80;95.10;;;6.22;98.33;99004.63;5061523;28;20534;-70
2024/02/03 06:37:13;;;;;;;13.57;11.30;;;6.80;95.30;;;6.11;98.05;99007.59;5076495;28;20536;-73
2024/02/03 06:39:42;;;;;;;17.57;13.10;;;6.80;95.30;;;6.11;99.05;99007.59;5065803;28;20469;-76
2024/02/03 06:42:10;;;;;;;12.67;11.13;;;6.70;95.90;;;6.17;99.08;99011.50;5062320;28;21036;-74
2024/02/03 06:44:38;;;;;;;13.10;11.70;;;6.70;95.90;;;5.93;100.00;99010.38;5063148;28;20485;-74
2024/02/03 06:47:06;;;;;;;20.73;13.87;;;6.60;96.30;;;6.00;100.00;99018.63;5067406;28;20817;-74
2024/02/03 06:49:35;;;;;;;24.00;16.70;;;6.60;97.30;;;5.83;100.00;99021.19;5071678;28;20446;-74
2024/02/03 06:52:04;;;;;;;17.63;13.07;;;6.60;97.60;;;5.84;100.00;99022.91;5062933;28;20802;-75
2024/02/03 06:54:31;;;;;;;17.30;13.20;;;6.60;98.30;;;5.81;100.00;99023.22;5069086;28;20542;-77
2024/02/03 06:57:00;;;;;;;19.20;12.50;;;6.50;98.70;;;6.05;100.00;99024.38;5069586;28;20453;-73
2024/02/03 06:59:27;;;;;;;16.30;11.80;;;6.60;99.90;;;6.04;100.00;99012.78;5057428;28;20452;-75
2024/02/03 07:01:55;;;;;;;15.27;10.17;;;6.60;99.50;;;6.07;100.00;99022.34;5072032;28;20544;-74
2024/02/03 07:04:22;;;;;;;15.07;11.93;;;6.70;99.10;;;6.02;100.00;99016.66;5057167;28;20968;-72
2024/02/03 07:06:49;;;;;;;14.77;11.40;;;6.70;99.00;;;6.12;100.00;99019.19;5062913;28;20475;-71
2024/02/03 07:09:19;;;;;;;17.57;11.60;;;6.70;99.00;;;6.08;100.00;99021.34;5081700;28;20459;-70
2024/02/03 07:11:49;;;;;;;18.73;12.30;;;6.70;98.90;;;6.01;100.00;99009.56;5060921;28;20522;-70
2024/02/03 07:14:21;;;;;;;14.13;11.27;;;6.70;98.70;;;6.11;100.00;99012.97;5056458;28;20482;-71
2024/02/03 07:16:49;;;;;;;17.10;11.43;;;6.80;99.50;;;6.10;100.00;99022.03;5057890;28;20509;-72
2024/02/03 07:19:19;;;;;;;15.60;11.20;;;6.80;98.70;;;6.22;100.00;99019.91;5062497;28;20457;-73
2024/02/03 07:21:54;;;;;;;14.67;9.83;;;6.90;99.50;;;6.23;100.00;99011.69;5067011;28;20528;-73
2024/02/03 07:24:23;;;;;;;15.23;10.60;;;6.80;98.90;;;6.24;100.00;99023.28;5066579;28;20462;-74
2024/02/03 07:26:50;;;;;;;13.10;10.50;;;6.80;99.10;;;6.13;100.00;99004.78;5065594;28;20751;-73
2024/02/03 07:29:31;;;;;;;14.30;11.00;;;6.80;98.90;;;6.03;100.00;99010.28;5068516;28;20856;-72
2024/02/03 07:32:02;;;;;;;15.37;11.40;;;6.80;98.20;;;6.00;100.00;99011.41;5068022;28;20858;-71
2024/02/03 07:34:32;;;;;;;12.40;10.40;;;6.70;98.10;;;6.11;100.00;99018.34;5066323;28;20563;-73
2024/02/03 07:37:00;;;;;;;13.17;10.57;;;6.80;98.80;;;6.08;100.00;99013.31;5057987;28;20464;-73
2024/02/03 07:39:29;;;;;;;12.47;9.67;;;6.70;98.70;;;6.03;100.00;99021.00;5063881;28;20452;-71
2024/02/03 07:41:57;;;;;;;11.70;9.30;;;6.70;99.00;;;6.08;100.00;99026.72;5052013;28;20453;-67
2024/02/03 07:44:27;;;;;;;11.70;9.00;;;6.70;99.40;;;6.12;100.00;99030.75;5072634;28;20464;-73
2024/02/03 07:47:00;;;;;;;12.73;9.80;;;6.80;99.70;;;6.24;100.00;99013.34;5066019;28;20457;-72
2024/02/03 07:49:31;;;;;;;13.30;9.77;;;6.80;99.90;;;6.18;100.00;99014.03;5067377;28;20551;-71
2024/02/03 07:52:03;;;;;;;13.03;9.93;;;6.80;99.90;;;6.13;100.00;99015.50;5068502;28;20465;-71
2024/02/03 07:54:33;;;;;;;11.83;10.07;;;6.80;99.90;;;6.12;100.00;99017.34;5068443;28;20988;-70
2024/02/03 07:57:04;;;;;;;11.10;8.83;;;6.80;99.90;;;6.14;100.00;99023.41;5063853;28;20458;-69
2024/02/03 07:59:39;;;;;;;11.40;9.17;;;6.70;99.90;;;6.07;100.00;99025.91;5067139;28;20545;-71
2024/02/03 08:02:08;;;;;;;11.57;8.63;;;6.80;99.90;;;5.96;100.00;99024.28;5061235;28;20893;-71
2024/02/03 08:04:37;;;;;;;13.97;9.93;;;6.70;99.90;;;6.00;100.00;99015.94;5062850;28;20463;-70
2024/02/03 08:07:05;;;;;;;11.80;9.00;;;6.70;99.90;;;6.06;100.00;99018.81;5059969;28;20461;-71
2024/02/03 08:09:33;;;;;;;12.77;9.10;;;6.70;99.90;;;5.87;100.00;99006.50;5061896;28;20817;-72
2024/02/03 08:12:03;;;;;;;10.27;9.07;;;6.70;99.90;;;6.05;100.00;99009.09;5066099;28;20481;-71
2024/02/03 08:14:32;;;;;;;11.90;8.73;;;6.80;99.90;;;5.96;100.00;98978.69;5065063;28;20529;-72
2024/02/03 08:17:00;;;;;;;10.90;8.27;;;6.80;99.90;;;6.06;100.00;98999.22;5064391;28;20556;-70
2024/02/03 08:19:27;;;;;;;7.47;6.67;;;6.80;99.40;;;6.02;100.00;99003.22;5067539;28;20457;-71
2024/02/03 08:22:01;;;;;;;7.90;5.30;;;6.80;96.30;;;6.07;99.70;99004.44;5064498;28;20886;-71
2024/02/03 08:24:29;;;;;;;9.07;6.23;;;6.80;95.60;;;6.14;99.39;99001.94;5058444;28;20445;-71
2024/02/03 08:26:56;;;;;;;7.37;6.67;;;6.90;95.20;;;6.16;98.48;99002.63;5063394;28;20494;-74
2024/02/03 08:29:24;;;;;;;8.30;6.50;;;6.90;94.30;;;6.20;98.05;99006.66;5063692;28;21048;-73
2024/02/03 08:35:20;;;;;;;8.83;5.70;;;6.90;93.90;;;6.08;97.98;99016.84;5071608;28;20544;-73
2024/02/03 08:37:50;;;;;;;7.47;5.20;;;7.00;93.80;;;6.03;97.89;99018.31;5068405;28;20463;-71
2024/02/03 08:40:18;;;;;;;6.63;4.90;;;7.00;93.00;;;6.14;97.48;99023.41;5060238;28;20467;-70
2024/02/03 08:42:47;;;;;;;6.67;4.80;;;7.10;92.80;;;6.32;96.14;99014.41;5063619;28;20484;-75
2024/02/03 08:45:14;;;;;;;7.47;5.30;;;7.10;92.90;;;6.45;95.44;99009.41;5058607;28;20452;-72
2024/02/03 08:47:43;;;;;;;7.57;4.90;;;7.20;92.70;;;6.52;94.51;99020.28;5073031;28;20472;-71
2024/02/03 08:50:12;;;;;;;7.30;4.73;;;7.20;92.30;;;6.54;94.80;99021.00;5055579;28;20839;-71
2024/02/03 08:52:39;;;;;;;5.27;4.33;;;7.20;92.40;;;6.52;94.03;99015.78;5062454;28;20460;-72
2024/02/03 08:55:07;;;;;;;6.23;4.40;;;7.20;91.90;;;6.30;94.38;99005.69;5058596;28;20946;-69
2024/02/03 08:57:35;;;;;;;6.20;4.00;;;7.20;91.70;;;6.47;94.08;99025.34;5057949;28;20461;-73
2024/02/03 09:00:04;;;;;;;7.97;5.10;;;7.20;91.90;;;6.45;94.42;99014.78;5060231;28;20456;-71
2024/02/03 09:02:32;;;;;;;8.13;4.77;;;7.20;92.10;;;6.54;93.73;99025.50;5070076;28;20449;-72
2024/02/03 09:05:03;;;;;;;5.40;4.80;;;7.20;92.00;;;6.54;93.43;99023.69;5058237;28;20453;-71
2024/02/03 09:07:31;;;;;;;6.43;4.27;;;7.20;91.70;;;6.50;93.17;99025.84;5059843;28;20672;-70
2024/02/03 09:09:59;;;;;;;7.10;4.40;;;7.20;91.80;;;6.44;93.88;99025.66;5057124;28;20444;-70
2024/02/03 09:12:29;;;;;;;5.17;4.30;;;7.20;91.80;;;6.52;94.24;99029.22;5063065;28;20457;-70
2024/02/03 09:14:58;;;;;;;8.20;5.30;;;7.20;92.10;;;6.60;93.88;99028.38;5057193;28;20483;-70
2024/02/03 09:17:27;;;;;;;6.63;5.20;;;7.30;92.30;;;6.58;94.10;99030.41;5057272;28;20809;-70
2024/02/03 09:19:54;;;;;;;8.07;5.43;;;7.20;92.30;;;6.40;95.68;99022.47;5057361;28;20453;-70
2024/02/03 09:22:31;;;;;;;9.73;4.77;;;7.20;92.60;;;6.40;96.48;99027.00;5060919;28;20936;-71
2024/02/03 09:25:04;;;;;;;8.10;5.30;;;7.10;93.10;;;6.40;96.67;99025.16;5059731;28;20464;-72
2024/02/03 09:27:36;;;;;;;6.57;5.20;;;7.10;93.50;;;6.32;97.79;99031.34;5061263;28;20909;-71
2024/02/03 09:30:06;;;;;;;7.63;6.13;;;7.10;94.00;;;6.32;99.13;99047.44;5060617;28;20494;-72
2024/02/03 09:32:34;;;;;;;8.70;5.33;;;7.00;94.80;;;6.41;99.00;99034.06;5059438;28;20442;-75
2024/02/03 09:35:02;;;;;;;7.60;5.80;;;7.10;95.40;;;6.34;100.00;99040.06;5059948;28;20505;-76
2024/02/03 09:37:31;;;;;;;13.67;9.50;;;7.10;95.60;;;6.38;100.00;99041.44;5056160;28;20537;-77
2024/02/03 09:39:58;;;;;;;7.57;6.27;;;7.00;96.50;;;6.33;100.00;99033.00;5074392;28;20445;-77
2024/02/03 09:42:26;;;;;;;10.07;7.10;;;7.00;96.30;;;6.35;100.00;99031.00;5063554;28;20456;-78
2024/02/03 09:44:53;;;;;;;8.53;6.53;;;7.00;96.60;;;6.31;100.00;99034.19;5079970;28;20453;-79
2024/02/03 09:47:21;;;;;;;8.90;6.93;;;7.00;97.30;;;6.11;100.00;99041.66;5057241;28;20476;-78
2024/02/03 09:49:49;;;;;;;7.77;6.33;;;7.00;96.30;;;6.14;100.00;99026.09;5056957;28;20977;-80
2024/02/03 09:52:16;;;;;;;7.33;5.20;;;7.00;96.20;;;6.26;99.46;99036.50;5057549;28;20459;-78
2024/02/03 09:54:47;;;;;;;8.10;6.10;;;7.00;95.20;;;6.35;99.27;99032.84;5063537;28;20476;-78
2024/02/03 09:57:16;;;;;;;6.33;5.27;;;7.10;95.20;;;6.28;98.23;99040.72;5062311;28;20459;-75
2024/02/03 09:59:50;;;;;;;8.60;6.03;;;7.10;94.40;;;6.46;97.66;99005.72;5078251;28;20484;-76
2024/02/03 10:02:18;;;;;;;5.97;5.20;;;7.30;94.10;;;6.73;95.84;99030.56;5059594;28;20454;-76
2024/02/03 10:04:46;;;;;;;10.27;5.00;;;7.40;93.20;;;6.99;92.65;99032.28;5064008;28;20438;-75
2024/02/03 10:07:19;;;;;;;5.50;4.90;;;7.50;91.80;;;7.12;91.24;99041.69;5065241;28;20463;-74
2024/02/03 10:09:48;;;;;;;4.77;4.03;;;7.80;90.90;;;7.22;88.76;99023.56;5079949;28;20461;-76
2024/02/03 10:12:18;;;;;;;3.20;3.00;;;7.90;90.10;;;7.43;86.68;99023.03;5062249;28;20442;-78
2024/02/03 10:14:46;;;;;;;3.03;2.50;;;8.10;88.70;;;7.55;85.81;99020.81;5068927;28;21156;-74
2024/02/03 10:17:21;;;;;;;3.77;3.37;;;8.20;87.80;;;7.45;85.73;99033.59;5061277;28;20454;-75
2024/02/03 10:19:48;;;;;;;6.37;3.60;;;8.20;87.30;;;7.26;86.07;99005.22;5063135;28;20458;-77
2024/02/03 10:22:16;;;;;;;3.63;2.90;;;8.20;87.20;;;7.49;85.86;99016.97;5070933;28;20487;-77
2024/02/03 10:24:43;;;;;;;4.90;3.37;;;8.20;87.20;;;7.80;84.56;99024.28;5071934;28;20454;-76
2024/02/03 10:27:11;;;;;;;5.23;3.83;;;8.30;87.30;;;7.83;84.94;99027.63;5064390;28;20510;-75
2024/02/03 10:29:39;;;;;;;4.13;3.00;;;8.40;87.30;;;7.62;85.69;99026.34;5066872;28;20457;-77
2024/02/03 10:32:07;;;;;;;3.50;3.10;;;8.40;86.70;;;7.71;85.96;99025.31;5063253;28;20506;-76
2024/02/03 10:34:35;;;;;;;3.80;3.10;;;8.30;87.50;;;7.76;85.22;99014.03;5060319;28;20479;-76